Latest Weather Observations for Thredbo Top Station

IDN60801

Issued at 8:03 am EDT Friday 21 January 2022 (issued every 10 minutes, with the page automatically refreshed every 10 minutes)

About weather observations | Map of weather stations | Latest weather observations for NSW | Other Formats
Station Details ID: 071032 Name: THREDBO AWS Lat: -36.49 Lon: 148.29 Height: 1957.0 m
Data from the previous 72 hours. | See also: Recent months at Thredbo Top Station
Date/Time
EDT
Temp
°C
App
Temp
°C
Dew
Point
°C
Rel
Hum
%
Delta-T
°C
Wind Press
QNH
hPa
Press
MSL
hPa
Rain since
9am
mm
Dir  Spd
km/h
Gust
km/h
Spd
kts
Gust
kts
21/08:00am 13.5 9.8 -8.4 21 8.5 ESE 4 7 2 4 1033.9 1025.5 0.0
21/07:30am 11.2 8.3 -8.1 25 7.4 CALM 0 4 0 2 1033.7 1025.3 0.0
21/07:00am 7.4 4.4 -5.3 40 4.9 W 2 7 1 4 1033.4 1025.0 0.0
21/06:30am 4.8 0.6 -7.6 40 4.5 WNW 7 9 4 5 1033.2 1024.8 0.0
21/06:00am 4.2 -0.1 -8.5 39 4.6 WNW 7 9 4 5 1033.1 1024.7 0.0
21/05:30am 5.2 0.1 -9.0 35 4.9 NW 11 15 6 8 1032.8 1024.4 0.0
21/05:00am 6.1 -0.8 -10.1 30 5.5 NNW 20 24 11 13 1032.3 1023.9 0.0
21/04:30am 7.5 -0.1 -10.3 27 6.2 NNW 24 28 13 15 1032.1 1023.7 0.0
21/04:00am 7.4 -0.6 -10.3 27 6.1 N 26 30 14 16 1032.1 1023.7 0.0
21/03:30am 7.9 1.0 -10.9 25 6.5 N 20 28 11 15 1032.5 1024.0 0.0
21/03:00am 8.2 1.4 -9.2 28 6.2 NNE 20 28 11 15 1032.6 1024.2 0.0
21/02:30am 7.9 0.4 -9.0 29 6.1 NNE 24 37 13 20 1032.7 1024.3 0.0
21/02:00am 7.9 0.5 -7.4 33 5.7 NNE 24 32 13 17 1032.7 1024.3 0.0
21/01:30am 7.9 0.2 -6.6 35 5.5 NNE 26 33 14 18 1033.1 1024.7 0.0
21/01:00am 7.3 0.1 -5.1 41 4.8 NNE 24 33 13 18 1033.3 1024.9 0.0
21/12:30am 7.3 -0.2 -4.1 44 4.6 NNE 26 37 14 20 1033.4 1025.0 0.0
21/12:00am 6.8 -0.4 -2.1 53 3.7 NNE 26 37 14 20 1033.7 1025.3 0.0
 
Date/Time
EDT
Temp
°C
App
Temp
°C
Dew
Point
°C
Rel
Hum
%
Delta-T
°C
Wind Press
QNH
hPa
Press
MSL
hPa
Rain since
9am
mm
Dir  Spd
km/h
Gust
km/h
Spd
kts
Gust
kts
20/11:30pm 7.1 -0.3 -0.8 57 3.4 NE 28 33 15 18 1033.9 1025.5 0.0
20/11:00pm 6.5 2.2 0.8 67 2.5 NNE 13 22 7 12 1034.2 1025.8 0.0
20/10:30pm 7.2 2.4 0.4 62 3.0 NNE 15 24 8 13 1034.4 1026.0 0.0
20/10:00pm 7.7 1.9 -0.3 57 3.5 NE 20 26 11 14 1034.0 1025.7 0.0
20/09:30pm 7.1 2.6 2.2 71 2.3 NNE 15 24 8 13 1034.0 1025.7 0.0
20/09:00pm 6.8 2.4 4.5 85 1.1 NNE 17 24 9 13 1033.7 1025.3 0.0
20/08:30pm 6.6 2.8 5.9 95 0.4 NNE 15 20 8 11 1033.6 1025.2 0.0
20/08:00pm 6.8 2.1 5.9 94 0.5 ENE 20 26 11 14 1033.7 1025.3 0.0
20/07:30pm 7.7 3.0 6.0 89 0.9 NE 20 26 11 14 1033.6 1025.2 0.0
20/07:00pm 8.6 4.5 6.1 84 1.3 NE 17 26 9 14 1033.4 1025.0 0.0
20/06:30pm 9.1 5.0 6.0 81 1.6 NE 17 24 9 13 1033.4 1025.0 0.0
20/06:00pm 9.3 4.8 5.9 79 1.7 NE 19 28 10 15 1033.4 1025.0 0.0
20/05:30pm 9.7 5.0 6.2 79 1.8 ENE 20 30 11 16 1033.6 1025.2 0.0
20/05:00pm 10.2 4.8 6.4 77 2.0 NE 24 33 13 18 1033.6 1025.2 0.0
20/04:30pm 10.3 4.9 6.5 77 2.0 NE 24 33 13 18 1033.6 1025.2 0.0
20/04:00pm 10.6 6.1 6.9 78 1.9 NE 20 32 11 17 1033.7 1025.3 0.0
20/03:30pm 10.6 6.3 7.1 79 1.9 ENE 19 30 10 16 1033.9 1025.5 0.0
20/03:00pm 10.3 6.0 7.2 81 1.6 ENE 19 32 10 17 1033.8 1025.4 0.0
20/02:30pm 10.0 5.0 6.5 79 1.8 ENE 22 32 12 17 1033.7 1025.3 0.0
20/02:00pm 9.5 4.6 6.8 83 1.4 ENE 22 35 12 19 1033.7 1025.3 0.0
20/01:30pm 9.2 3.7 5.9 80 1.7 ENE 24 33 13 18 1033.7 1025.3 0.0
20/01:00pm 9.6 4.1 6.0 78 1.8 ENE 24 37 13 20 1033.7 1025.3 0.0
20/12:30pm 9.5 4.4 6.2 80 1.7 ENE 22 37 12 20 1033.6 1025.2 0.0
20/12:00pm 9.2 3.5 4.8 74 2.2 NE 24 33 13 18 1033.4 1025.0 0.0
20/11:30am 8.8 3.3 4.0 72 2.4 NE 22 35 12 19 1033.3 1024.9 0.0
20/11:00am 9.7 4.5 3.4 65 3.1 NE 20 32 11 17 1033.2 1024.8 0.0
20/10:30am 9.6 4.6 3.8 67 2.9 ENE 19 28 10 15 1033.1 1024.7 0.0
20/10:00am 9.1 3.9 2.7 64 3.0 NE 19 32 10 17 1032.9 1024.5 0.0
20/09:30am 10.1 3.8 -1.0 46 4.9 NE 22 33 12 18 1032.9 1024.5 0.0
20/09:00am 9.7 2.0 -3.2 40 5.4 NE 28 39 15 21 1032.7 1024.3 0.0
20/08:30am 8.2 1.7 -2.4 47 4.5 NE 22 39 12 21 1032.1 1023.7 0.0
20/08:00am 3.4 -2.2 1.4 87 0.9 NE 20 30 11 16 1032.1 1023.7 0.0
20/07:30am 3.0 -3.4 0.9 86 0.9 NE 24 43 13 23 1032.0 1023.5 0.0
20/07:09am 3.2 -4.5 0.1 80 1.3 NNE 30 48 16 26 1031.6 1023.2 0.0
20/07:00am 4.5 -4.1 -2.4 61 2.8 NNE 33 48 18 26 1031.3 1022.8 0.0
20/06:30am 2.6 -4.0 -0.5 80 1.3 NNE 24 39 13 21 1031.5 1023.0 0.0
20/06:00am 3.3 -3.5 -2.2 67 2.2 NNE 24 39 13 21 1031.0 1022.5 0.0
20/05:30am 2.0 -4.5 0.1 87 0.8 NNE 24 44 13 24 1030.6 1022.1 0.0
20/05:00am 3.2 -3.5 -1.2 73 1.8 NNE 24 33 13 18 1030.3 1021.8 0.0
20/04:30am 2.1 -5.2 0.3 88 0.8 NNE 28 39 15 21 1030.2 1021.6 0.0
20/04:00am 1.4 -4.9 1.4 100 0.0 NNE 24 35 13 19 1030.4 1021.9 0.0
20/03:30am 1.8 -3.7 1.8 100 0.0 NE 20 32 11 17 1030.6 1022.1 0.0
20/03:00am 1.8 -4.5 1.8 100 0.0 ENE 24 37 13 20 1030.9 1022.4 0.0
20/02:30am 2.4 -3.8 2.4 100 0.0 ENE 24 41 13 22 1031.0 1022.5 0.0
20/02:00am 2.2 -4.8 2.2 100 0.0 ENE 28 44 15 24 1031.0 1022.5 0.0
20/01:30am 2.4 -4.5 2.4 100 0.0 ENE 28 39 15 21 1031.1 1022.6 0.0
20/01:00am 2.7 -4.2 2.7 100 0.0 ENE 28 43 15 23 1031.0 1022.5 0.0
20/12:30am 2.9 -3.2 2.9 100 0.0 ENE 24 37 13 20 1031.1 1022.6 0.0
20/12:00am 3.0 -3.4 3.0 100 0.0 ENE 26 37 14 20 1031.1 1022.6 0.0
 
Date/Time
EDT
Temp
°C
App
Temp
°C
Dew
Point
°C
Rel
Hum
%
Delta-T
°C
Wind Press
QNH
hPa
Press
MSL
hPa
Rain since
9am
mm
Dir  Spd
km/h
Gust
km/h
Spd
kts
Gust
kts
19/11:30pm 3.1 -2.9 3.1 100 0.0 ENE 24 35 13 19 1031.1 1022.6 0.0
19/11:00pm 3.2 -2.1 3.1 99 0.0 ENE 20 32 11 17 1031.3 1022.8 0.0
19/10:30pm 3.6 -1.6 3.5 99 0.0 E 20 32 11 17 1031.3 1022.8 0.0
19/10:00pm 3.7 -1.9 3.6 99 0.0 E 22 35 12 19 1031.1 1022.6 0.0
19/09:30pm 4.0 -1.1 3.9 99 0.0 E 20 32 11 17 1030.9 1022.4 0.0
19/09:00pm 4.3 -0.8 3.9 97 0.2 ESE 20 32 11 17 1030.3 1021.8 0.0
19/08:30pm 4.5 -1.1 3.5 93 0.5 ESE 22 35 12 19 1030.2 1021.6 0.0
19/08:00pm 5.1 -0.8 3.9 92 0.6 ESE 24 39 13 21 1029.9 1021.4 0.0
19/07:30pm 5.8 0.0 4.6 92 0.6 ESE 24 44 13 24 1029.8 1021.3 0.0
19/07:00pm 6.5 1.5 4.7 88 0.9 SE 20 41 11 22 1029.3 1020.8 0.0
19/06:30pm 7.2 1.5 4.9 85 1.1 ESE 24 37 13 20 1029.1 1020.5 0.0
19/06:00pm 7.8 2.9 5.3 84 1.2 SE 20 37 11 20 1028.6 1020.0 0.0
19/05:30pm 8.1 3.2 5.0 81 1.6 SE 20 48 11 26 1028.6 1020.0 0.0
19/05:00pm 8.7 4.1 5.8 82 1.5 SE 19 32 10 17 1028.7 1020.1 0.0
19/04:30pm 9.1 2.8 5.7 79 1.7 E 28 44 15 24 1028.6 1020.0 0.0
19/04:00pm 9.4 4.4 6.3 81 1.6 SE 22 43 12 23 1028.6 1020.0 0.0
19/03:30pm 9.7 4.2 5.9 77 2.0 ESE 24 44 13 24 1028.6 1020.0 0.0
19/03:00pm 9.5 3.3 6.0 79 1.8 ESE 28 46 15 25 1028.5 1019.9 0.0
19/02:55pm 9.6 3.6 5.4 75 2.1 ESE 26 46 14 25 1028.5 1019.9 0.0
19/02:30pm 9.4 4.7 6.1 80 1.7 SE 20 39 11 21 1028.5 1019.9 0.0
19/02:15pm 9.1 2.8 5.7 79 1.7 ESE 28 46 15 25 1028.2 1019.6 0.0
19/02:00pm 8.4 3.1 6.9 90 0.8 ESE 24 39 13 21 1028.2 1019.6 0.0
19/01:30pm 7.9 2.5 6.2 89 0.9 E 24 41 13 22 1028.2 1019.6 0.0
19/01:00pm 8.6 3.3 6.6 87 1.0 E 24 35 13 19 1028.1 1019.5 0.0
19/12:30pm 8.2 3.4 7.4 95 0.4 E 22 35 12 19 1027.9 1019.3 0.0
19/12:00pm 7.7 3.5 7.4 98 0.2 ESE 19 32 10 17 1028.0 1019.4 0.0
19/11:30am 7.1 2.6 7.0 99 0.1 E 20 30 11 16 1027.7 1019.1 0.0
19/11:00am 6.9 2.0 6.8 99 0.1 ENE 22 41 12 22 1027.5 1018.9 0.0
19/10:30am 6.2 2.1 6.2 100 0.0 E 17 26 9 14 1027.5 1018.9 0.0
19/10:00am 5.8 1.6 5.8 100 0.0 E 17 30 9 16 1027.4 1018.8 0.0
19/09:30am 5.8 2.0 5.8 100 0.0 ENE 15 24 8 13 1027.1 1018.5 0.0
19/09:00am 4.8 0.4 4.8 100 0.0 ENE 17 28 9 15 1027.0 1018.4 1.4
19/08:30am 4.7 0.3 4.7 100 0.0 ENE 17 28 9 15 1026.8 1018.1 1.4
19/08:00am 4.4 0.3 4.4 100 0.0 ENE 15 22 8 12 1026.4 1017.7 1.4
19/07:30am 4.3 0.2 4.3 100 0.0 ENE 15 22 8 12 1025.9 1017.2 1.4
19/07:00am 4.1 0.7 4.1 100 0.0 ENE 11 19 6 10 1025.4 1016.7 1.4
19/06:30am 4.4 0.7 4.4 100 0.0 E 13 19 7 10 1025.1 1016.4 1.4
19/06:00am 5.0 2.2 5.0 100 0.0 ENE 9 13 5 7 1024.6 1015.9 1.4
19/05:30am 5.4 3.0 5.4 100 0.0 ENE 7 11 4 6 1023.9 1015.1 1.2
19/05:00am 6.0 3.8 6.0 100 0.0 ENE 7 11 4 6 1023.5 1014.7 1.2
19/04:30am 6.6 4.7 6.6 100 0.0 NNE 6 9 3 5 1023.0 1014.2 1.2
19/04:00am 6.6 5.1 6.6 100 0.0 NE 4 7 2 4 1022.9 1014.1 1.2
19/03:30am 6.5 4.6 6.5 100 0.0 ENE 6 9 3 5 1022.7 1013.9 1.2
19/03:00am 6.8 4.4 6.8 100 0.0 ENE 9 13 5 7 1022.7 1013.9 1.2
19/02:30am 7.0 4.6 7.0 100 0.0 ENE 9 13 5 7 1022.8 1014.0 1.2
19/02:00am 7.4 4.7 7.4 100 0.0 NE 11 13 6 7 1022.5 1013.7 1.0
19/01:30am 7.6 5.3 7.6 100 0.0 ENE 9 13 5 7 1022.8 1014.0 1.0
19/01:00am 7.9 5.7 7.9 100 0.0 NE 9 13 5 7 1022.8 1014.0 0.8
19/12:30am 8.3 6.6 8.3 100 0.0 NE 7 11 4 6 1022.8 1014.0 0.8
19/12:00am 8.5 6.1 8.5 100 0.0 ENE 11 15 6 8 1022.9 1014.1 0.6
 
Date/Time
EDT
Temp
°C
App
Temp
°C
Dew
Point
°C
Rel
Hum
%
Delta-T
°C
Wind Press
QNH
hPa
Press
MSL
hPa
Rain since
9am
mm
Dir  Spd
km/h
Gust
km/h
Spd
kts
Gust
kts
18/11:30pm 8.9 6.6 8.9 100 0.0 ENE 11 17 6 9 1022.7 1013.9 0.4
18/11:00pm 9.2 6.6 9.2 100 0.0 NE 13 17 7 9 1022.5 1013.7 0.4
18/10:30pm 9.4 8.0 9.4 100 0.0 E 7 11 4 6 1022.5 1013.7 0.4
18/10:00pm 10.0 8.0 10.0 100 0.0 ENE 11 17 6 9 1022.4 1013.6 0.2
18/09:30pm 10.1 7.3 10.1 100 0.0 ENE 15 19 8 10 1022.2 1013.3 0.0
18/09:00pm 10.4 8.5 10.4 100 0.0 ENE 11 17 6 9 1022.0 1013.2 0.0
18/08:30pm 10.6 8.7 10.6 100 0.0 ENE 11 17 6 9 1021.7 1012.8 0.0
18/08:00pm 10.8 9.0 10.8 100 0.0 ENE 11 19 6 10 1021.4 1012.6 0.0
18/07:30pm 11.3 10.0 11.1 99 0.1 ESE 9 17 5 9 1020.7 1011.8 0.0
18/07:00pm 11.3 9.2 11.1 99 0.1 E 13 19 7 10 1020.1 1011.2 0.0
18/06:30pm 11.9 11.0 11.3 96 0.3 E 7 13 4 7 1020.4 1011.5 0.0
18/06:00pm 11.7 10.1 11.4 98 0.2 ENE 11 15 6 8 1020.4 1011.5 0.0
18/05:30pm 12.3 11.2 11.8 97 0.3 E 9 13 5 7 1020.2 1011.3 0.0
18/05:00pm 13.1 11.2 11.8 92 0.8 ENE 13 19 7 10 1020.4 1011.5 0.0
18/04:30pm 15.5 14.8 12.1 80 2.0 SSE 7 26 4 14 1020.5 1011.6 0.0
18/04:00pm 15.2 13.4 9.3 68 3.4 W 9 17 5 9 1020.5 1011.6 0.0
18/03:30pm 15.6 14.4 9.5 67 3.5 WSW 6 17 3 9 1020.6 1011.7 0.0
18/03:00pm 15.2 13.4 9.6 69 3.2 NW 9 19 5 10 1020.6 1011.7 0.0
18/02:30pm 14.6 12.7 9.2 70 3.1 WNW 9 17 5 9 1020.7 1011.8 0.0
18/02:00pm 14.5 11.8 9.1 70 3.0 W 13 22 7 12 1020.8 1012.0 0.0
18/01:30pm 13.9 10.5 9.1 73 2.7 WNW 17 24 9 13 1020.8 1012.0 0.0
18/01:00pm 14.5 12.4 9.9 74 2.6 WNW 11 20 6 11 1021.0 1012.1 0.0
18/12:30pm 14.0 11.6 10.2 78 2.2 WNW 13 24 7 13 1021.0 1012.1 0.0
18/12:00pm 12.4 9.7 8.9 79 1.9 NW 13 22 7 12 1021.2 1012.3 0.0
18/11:30am 11.5 7.7 8.9 84 1.4 NW 19 24 10 13 1021.2 1012.3 0.0
18/11:00am 11.6 8.0 9.9 89 1.0 NW 19 24 10 13 1021.0 1012.1 0.0
18/10:30am 11.2 8.8 10.1 93 0.6 NW 13 20 7 11 1021.0 1012.1 0.0
18/10:00am 11.2 8.9 10.6 96 0.3 WNW 13 20 7 11 1020.8 1012.0 0.0
18/09:30am 11.4 9.4 10.3 93 0.6 NNW 11 19 6 10 1020.6 1011.7 0.0
18/09:00am 11.3 10.4 10.5 95 0.5 N 6 13 3 7 1020.5 1011.6 7.8
18/08:30am 10.4 8.6 9.6 95 0.4 WNW 9 22 5 12 1020.4 1011.5 7.8

Other formats

Comma delimited format used in spreadsheet applications
http://www.bom.gov.au/fwo/IDN60801/IDN60801.95909.axf

JavaScript Object Notation format (JSON) in row-major order
http://www.bom.gov.au/fwo/IDN60801/IDN60801.95909.json

Data quality

Most of these data are generated automatically and are frequently updated. Quality checks on data are not normally performed. It is possible for incorrect values to appear. Refer to information at About Latest Weather Observations and please check the disclaimer before using these data.